Time;durP1;ratioP1;P1;durP2;ratioP2;P2;SDS_P1;SDS_P2;PMS_P1;PMS_P2;Temp;Humidity;BMP_temperature;BMP_pressure;BME280_temperature;BME280_humidity;BME280_pressure;Samples;Min_cycle;Max_cycle;Signal;HPM_P1;HPM_P2
2023/03/11 00:00:31;;;;;;;;;;;;;;;6.82;74.65;94700.21;108943;1250;97064;-72
2023/03/11 00:03:21;;;;;;;;;;;;;;;6.84;74.77;94698.63;109001;1250;106313;-72
2023/03/11 00:05:49;;;;;;;;;;;;;;;6.84;74.88;94702.59;108981;1250;101577;-73
2023/03/11 00:08:19;;;;;;;;;;;;;;;6.83;74.84;94700.55;108889;1250;99903;-72
2023/03/11 00:10:48;;;;;;;;;;;;;;;6.81;74.72;94700.46;109001;1249;96967;-74
2023/03/11 00:13:16;;;;;;;;;;;;;;;6.80;74.87;94699.06;108991;1249;96944;-75
2023/03/11 00:15:51;;;;;;;;;;;;;;;6.80;74.93;94695.89;108993;1250;105081;-74
2023/03/11 00:18:19;;;;;;;;;;;;;;;6.79;74.95;94691.43;108368;1256;101361;-72
2023/03/11 00:20:48;;;;;;;;;;;;;;;6.82;75.05;94690.39;108504;1255;99894;-73
2023/03/11 00:23:16;;;;;;;;;;;;;;;6.83;75.08;94688.10;108550;1255;97044;-74
2023/03/11 00:25:45;;;;;;;;;;;;;;;6.82;75.02;94684.02;108592;1255;97995;-71
2023/03/11 00:28:13;;;;;;;;;;;;;;;6.79;75.05;94688.16;108608;1255;105215;-72
2023/03/11 00:30:42;;;;;;;;;;;;;;;6.79;75.18;94688.11;108579;1256;101331;-72
2023/03/11 00:33:11;;;;;;;;;;;;;;;6.77;75.18;94689.00;108241;1256;101444;-72
2023/03/11 00:35:39;;;;;;;;;;;;;;;6.74;75.18;94684.06;108583;1254;96991;-71
2023/03/11 00:38:08;;;;;;;;;;;;;;;6.72;75.28;94682.37;108583;1255;97053;-74
2023/03/11 00:40:41;;;;;;;;;;;;;;;6.68;75.29;94678.09;108610;1255;105217;-72
2023/03/11 00:43:09;;;;;;;;;;;;;;;6.66;75.32;94677.52;108560;1255;101068;-72
2023/03/11 00:45:38;;;;;;;;;;;;;;;6.65;75.36;94669.84;108570;1256;99883;-72
2023/03/11 00:48:06;;;;;;;;;;;;;;;6.62;75.45;94666.02;108576;1255;96901;-73
2023/03/11 00:50:36;;;;;;;;;;;;;;;6.64;75.40;94667.48;108866;1251;96957;-74
2023/03/11 00:53:05;;;;;;;;;;;;;;;6.66;75.44;94660.32;108928;1251;104871;-72
2023/03/11 00:55:33;;;;;;;;;;;;;;;6.65;75.45;94664.11;108890;1251;101547;-72
2023/03/11 00:58:03;;;;;;;;;;;;;;;6.66;75.37;94663.37;108811;1251;98619;-73
2023/03/11 01:00:34;;;;;;;;;;;;;;;6.67;75.45;94659.68;108897;1251;96973;-72
2023/03/11 01:03:02;;;;;;;;;;;;;;;6.67;75.54;94656.99;108910;1251;97060;-72
2023/03/11 01:05:32;;;;;;;;;;;;;;;6.68;75.55;94651.98;108920;1251;104821;-73
2023/03/11 01:08:01;;;;;;;;;;;;;;;6.68;75.63;94653.27;108871;1251;101350;-74
2023/03/11 01:10:30;;;;;;;;;;;;;;;6.69;75.58;94649.52;108926;1251;99070;-72
2023/03/11 01:12:58;;;;;;;;;;;;;;;6.70;75.52;94650.39;108881;1251;97262;-72
2023/03/11 01:15:28;;;;;;;;;;;;;;;6.71;75.43;94646.65;108917;1251;96964;-74
2023/03/11 01:17:56;;;;;;;;;;;;;;;6.74;75.55;94643.04;108903;1249;105258;-72
2023/03/11 01:20:25;;;;;;;;;;;;;;;6.78;75.44;94645.36;109025;1250;101330;-75
2023/03/11 01:22:53;;;;;;;;;;;;;;;6.80;75.45;94642.33;108969;1249;100008;-72
2023/03/11 01:25:22;;;;;;;;;;;;;;;6.85;75.37;94639.16;108709;1250;97252;-72
2023/03/11 01:27:50;;;;;;;;;;;;;;;6.90;75.34;94639.41;109009;1249;96943;-74
2023/03/11 01:30:21;;;;;;;;;;;;;;;6.95;75.38;94648.46;109012;1250;104394;-72
2023/03/11 01:32:49;;;;;;;;;;;;;;;6.98;75.30;94647.59;109010;1249;101837;-72
2023/03/11 01:35:18;;;;;;;;;;;;;;;7.02;75.23;94643.20;108974;1249;100270;-72
2023/03/11 01:37:46;;;;;;;;;;;;;;;7.05;75.10;94637.06;108651;1251;97021;-72
2023/03/11 01:40:19;;;;;;;;;;;;;;;7.10;74.95;94637.39;108702;1250;97035;-72
2023/03/11 01:42:47;;;;;;;;;;;;;;;7.14;74.84;94640.35;108952;1249;104599;-73
2023/03/11 01:45:33;;;;;;;;;;;;;;;7.18;74.67;94638.56;109035;1249;100032;-74
2023/03/11 01:48:02;;;;;;;;;;;;;;;7.23;74.47;94642.58;108946;1250;100013;-73
2023/03/11 01:50:39;;;;;;;;;;;;;;;7.26;74.43;94637.64;108946;1249;96915;-73
2023/03/11 01:53:07;;;;;;;;;;;;;;;7.27;74.36;94636.15;108930;1251;98079;-72
2023/03/11 01:55:35;;;;;;;;;;;;;;;7.29;74.31;94633.21;109001;1250;104903;-74
2023/03/11 01:58:06;;;;;;;;;;;;;;;7.30;74.22;94632.69;109022;1250;101230;-72
2023/03/11 02:00:34;;;;;;;;;;;;;;;7.33;73.97;94626.65;109003;1250;99642;-73
2023/03/11 02:03:07;;;;;;;;;;;;;;;7.37;73.86;94624.41;108959;1250;96929;-72
2023/03/11 02:05:35;;;;;;;;;;;;;;;7.41;73.78;94623.14;108980;1249;97039;-73
2023/03/11 02:08:03;;;;;;;;;;;;;;;7.46;73.31;94624.59;109018;1249;104692;-72
2023/03/11 02:10:31;;;;;;;;;;;;;;;7.51;73.28;94632.17;109033;1250;108548;-73
2023/03/11 02:12:59;;;;;;;;;;;;;;;7.54;73.17;94637.95;108937;1250;99958;-75
2023/03/11 02:15:28;;;;;;;;;;;;;;;7.57;73.12;94648.55;108952;1249;96933;-75
2023/03/11 02:17:56;;;;;;;;;;;;;;;7.58;73.47;94648.02;108977;1249;97035;-75
2023/03/11 02:20:40;;;;;;;;;;;;;;;7.57;73.67;94645.33;109025;1249;105067;-73
2023/03/11 02:23:09;;;;;;;;;;;;;;;7.56;73.90;94651.49;108986;1250;101492;-73
2023/03/11 02:25:46;;;;;;;;;;;;;;;7.54;73.91;94671.61;109052;1249;100231;-75
2023/03/11 02:28:15;;;;;;;;;;;;;;;7.42;72.84;94680.91;108984;1250;97204;-75
2023/03/11 02:30:44;;;;;;;;;;;;;;;7.21;72.30;94675.66;108841;1250;97067;-73
2023/03/11 02:33:13;;;;;;;;;;;;;;;7.07;72.63;94676.56;109061;1250;104829;-75
2023/03/11 02:35:41;;;;;;;;;;;;;;;6.99;72.58;94669.91;108986;1250;101289;-72
2023/03/11 02:38:09;;;;;;;;;;;;;;;6.94;72.57;94669.37;108980;1249;100084;-73
2023/03/11 02:40:44;;;;;;;;;;;;;;;6.86;72.38;94669.77;108921;1249;97280;-75
2023/03/11 02:43:14;;;;;;;;;;;;;;;6.78;72.26;94672.71;108649;1250;96955;-73
2023/03/11 02:45:44;;;;;;;;;;;;;;;6.70;71.88;94676.39;109007;1250;104875;-73
2023/03/11 02:48:12;;;;;;;;;;;;;;;6.61;71.53;94678.71;108977;1249;101321;-74
2023/03/11 02:50:41;;;;;;;;;;;;;;;6.58;71.69;94681.73;109014;1249;100403;-73
2023/03/11 02:53:09;;;;;;;;;;;;;;;6.58;71.82;94685.20;108947;1249;96874;-72
2023/03/11 02:55:37;;;;;;;;;;;;;;;6.59;71.86;94682.34;108973;1249;96970;-73
2023/03/11 02:58:05;;;;;;;;;;;;;;;6.58;72.02;94678.84;109025;1249;104626;-72
2023/03/11 03:00:33;;;;;;;;;;;;;;;6.55;72.20;94684.96;109009;1250;101167;-75
2023/03/11 03:03:01;;;;;;;;;;;;;;;6.49;72.44;94682.08;108972;1249;100033;-72
2023/03/11 03:05:29;;;;;;;;;;;;;;;6.45;72.69;94676.94;108971;1249;96990;-75
2023/03/11 03:07:57;;;;;;;;;;;;;;;6.42;72.76;94676.20;108995;1249;97000;-73
2023/03/11 03:10:25;;;;;;;;;;;;;;;6.40;73.06;94676.46;109017;1250;105158;-75
2023/03/11 03:12:53;;;;;;;;;;;;;;;6.40;73.09;94680.86;108986;1250;100478;-73
2023/03/11 03:15:21;;;;;;;;;;;;;;;6.38;72.72;94688.71;109009;1250;99032;-72
2023/03/11 03:17:50;;;;;;;;;;;;;;;6.34;72.45;94691.93;108971;1250;96933;-75
2023/03/11 03:20:21;;;;;;;;;;;;;;;6.31;72.41;94686.05;109028;1249;97106;-73
2023/03/11 03:22:50;;;;;;;;;;;;;;;6.28;72.32;94683.67;109000;1249;104765;-72
2023/03/11 03:25:18;;;;;;;;;;;;;;;6.24;71.85;94688.28;108750;1250;100692;-72
2023/03/11 03:27:46;;;;;;;;;;;;;;;6.18;71.62;94690.88;109032;1250;99835;-73
2023/03/11 03:30:15;;;;;;;;;;;;;;;6.13;71.56;94685.05;109013;1249;96912;-72
2023/03/11 03:32:43;;;;;;;;;;;;;;;6.10;71.52;94675.58;109054;1250;96928;-73
2023/03/11 03:35:11;;;;;;;;;;;;;;;6.08;71.25;94681.22;109008;1249;105210;-72
2023/03/11 03:37:39;;;;;;;;;;;;;;;6.04;71.10;94679.67;109027;1249;101280;-72
2023/03/11 03:40:11;;;;;;;;;;;;;;;6.01;71.09;94677.35;108975;1250;100128;-72
2023/03/11 03:42:39;;;;;;;;;;;;;;;5.99;70.88;94663.40;108673;1249;96961;-73
2023/03/11 03:45:07;;;;;;;;;;;;;;;5.96;70.74;94662.06;109024;1250;97003;-73
2023/03/11 03:47:36;;;;;;;;;;;;;;;5.93;70.93;94662.23;109019;1250;105201;-74
2023/03/11 03:50:05;;;;;;;;;;;;;;;5.89;70.69;94665.66;108971;1250;101371;-72
2023/03/11 03:52:34;;;;;;;;;;;;;;;5.86;70.66;94662.86;108999;1249;99794;-73
2023/03/11 03:55:02;;;;;;;;;;;;;;;5.82;70.52;94658.80;108607;1251;97034;-74
2023/03/11 03:57:31;;;;;;;;;;;;;;;5.77;70.51;94654.42;109048;1249;97002;-73
2023/03/11 03:59:58;;;;;;;;;;;;;;;5.75;70.52;94651.92;109038;1250;105160;-73
2023/03/11 04:02:27;;;;;;;;;;;;;;;5.74;70.52;94649.70;109018;1249;101282;-73
2023/03/11 04:04:55;;;;;;;;;;;;;;;5.72;70.45;94652.79;108945;1250;98989;-73
2023/03/11 04:07:23;;;;;;;;;;;;;;;5.70;70.34;94650.61;108970;1249;97041;-72
2023/03/11 04:09:50;;;;;;;;;;;;;;;5.68;70.10;94654.98;108985;1250;96935;-73
2023/03/11 04:12:18;;;;;;;;;;;;;;;5.66;70.04;94654.42;108991;1250;105143;-74
2023/03/11 04:14:47;;;;;;;;;;;;;;;5.65;70.10;94653.77;109003;1249;101030;-72
2023/03/11 04:17:16;;;;;;;;;;;;;;;5.64;69.94;94650.59;108857;1250;99929;-73
2023/03/11 04:19:44;;;;;;;;;;;;;;;5.62;69.96;94644.05;109008;1249;96870;-72
2023/03/11 04:22:12;;;;;;;;;;;;;;;5.62;69.99;94642.00;109020;1249;96996;-75
2023/03/11 04:24:40;;;;;;;;;;;;;;;5.61;69.90;94641.94;109044;1251;103841;-73
2023/03/11 04:27:08;;;;;;;;;;;;;;;5.61;69.86;94640.42;109001;1250;101478;-72
2023/03/11 04:29:36;;;;;;;;;;;;;;;5.59;69.80;94643.19;108851;1251;99060;-72
2023/03/11 04:32:04;;;;;;;;;;;;;;;5.59;69.79;94640.94;108965;1249;96881;-72
2023/03/11 04:34:32;;;;;;;;;;;;;;;5.60;69.71;94634.85;109001;1250;97016;-72
2023/03/11 04:37:00;;;;;;;;;;;;;;;5.59;69.52;94632.39;108813;1251;104694;-74
2023/03/11 04:39:28;;;;;;;;;;;;;;;5.59;69.33;94629.70;109039;1249;101355;-76
2023/03/11 04:41:56;;;;;;;;;;;;;;;5.59;69.19;94625.04;108856;1250;98939;-72
2023/03/11 04:44:24;;;;;;;;;;;;;;;5.60;69.10;94619.45;108953;1249;96852;-73
2023/03/11 04:46:52;;;;;;;;;;;;;;;5.60;69.00;94618.37;108994;1250;96998;-75
2023/03/11 04:49:20;;;;;;;;;;;;;;;5.60;68.90;94613.45;108994;1250;103900;-75
2023/03/11 04:51:48;;;;;;;;;;;;;;;5.60;68.75;94610.51;108975;1250;101391;-73
2023/03/11 04:54:16;;;;;;;;;;;;;;;5.59;68.80;94609.46;108875;1251;99899;-74
2023/03/11 04:56:44;;;;;;;;;;;;;;;5.58;68.74;94612.08;108934;1251;96902;-72
2023/03/11 04:59:12;;;;;;;;;;;;;;;5.57;68.53;94611.69;108971;1251;97132;-72
2023/03/11 05:01:40;;;;;;;;;;;;;;;5.57;68.59;94611.48;109020;1250;104963;-74
2023/03/11 05:04:08;;;;;;;;;;;;;;;5.56;68.40;94606.96;108900;1251;101853;-73
2023/03/11 05:06:36;;;;;;;;;;;;;;;5.54;68.20;94600.16;108895;1250;100154;-72
2023/03/11 05:09:04;;;;;;;;;;;;;;;5.50;68.27;94594.70;108969;1251;97001;-73
2023/03/11 05:11:32;;;;;;;;;;;;;;;5.47;68.30;94592.52;108972;1250;96954;-72
2023/03/11 05:14:00;;;;;;;;;;;;;;;5.43;68.13;94587.17;108948;1251;104877;-76
2023/03/11 05:16:28;;;;;;;;;;;;;;;5.41;68.15;94590.38;108970;1251;101496;-75
2023/03/11 05:18:56;;;;;;;;;;;;;;;5.40;68.29;94588.95;108953;1251;108874;-73
2023/03/11 05:21:24;;;;;;;;;;;;;;;5.39;68.06;94591.19;108877;1251;96923;-72
2023/03/11 05:23:52;;;;;;;;;;;;;;;5.38;68.13;94583.04;108974;1251;96952;-72
2023/03/11 05:26:20;;;;;;;;;;;;;;;5.36;68.17;94586.43;108913;1250;105184;-72
2023/03/11 05:28:48;;;;;;;;;;;;;;;5.34;68.02;94584.73;108718;1251;100231;-72
2023/03/11 05:31:16;;;;;;;;;;;;;;;5.33;67.89;94579.80;108881;1251;100098;-72
2023/03/11 05:33:44;;;;;;;;;;;;;;;5.30;67.80;94573.84;108890;1251;97338;-73
2023/03/11 05:36:12;;;;;;;;;;;;;;;5.29;67.88;94571.15;108572;1251;97010;-72
2023/03/11 05:38:40;;;;;;;;;;;;;;;5.28;67.84;94573.45;109009;1251;105138;-74
2023/03/11 05:41:08;;;;;;;;;;;;;;;5.27;67.98;94570.38;108976;1250;100030;-73
2023/03/11 05:43:36;;;;;;;;;;;;;;;5.28;67.98;94569.86;108938;1250;99936;-75
2023/03/11 05:46:04;;;;;;;;;;;;;;;5.28;67.83;94573.93;109006;1251;96881;-73
2023/03/11 05:48:32;;;;;;;;;;;;;;;5.28;67.77;94574.94;108939;1250;96995;-72
2023/03/11 05:51:00;;;;;;;;;;;;;;;5.26;67.81;94570.52;108995;1251;104808;-72
2023/03/11 05:53:28;;;;;;;;;;;;;;;5.26;67.83;94578.39;109035;1250;101571;-72
2023/03/11 05:55:59;;;;;;;;;;;;;;;5.25;67.96;94590.09;109011;1250;100093;-72
2023/03/11 05:58:27;;;;;;;;;;;;;;;5.24;67.88;94592.38;109000;1250;96932;-74
2023/03/11 06:00:55;;;;;;;;;;;;;;;5.22;67.87;94600.73;109032;1249;96956;-74
2023/03/11 06:03:23;;;;;;;;;;;;;;;5.20;67.88;94602.63;108933;1251;103850;-75
2023/03/11 06:05:51;;;;;;;;;;;;;;;5.20;67.95;94607.81;109033;1250;101075;-74
2023/03/11 06:08:20;;;;;;;;;;;;;;;5.20;67.80;94613.69;109071;1250;100048;-72
2023/03/11 06:10:48;;;;;;;;;;;;;;;5.19;67.86;94613.38;108995;1250;96860;-72
2023/03/11 06:13:16;;;;;;;;;;;;;;;5.19;67.87;94617.02;109055;1250;96990;-72
2023/03/11 06:15:44;;;;;;;;;;;;;;;5.16;67.67;94617.02;109055;1250;104346;-72
2023/03/11 06:18:12;;;;;;;;;;;;;;;5.08;67.51;94617.45;109021;1251;101060;-72
2023/03/11 06:20:40;;;;;;;;;;;;;;;5.04;67.72;94624.66;109014;1249;100127;-74
2023/03/11 06:23:08;;;;;;;;;;;;;;;5.01;67.74;94636.42;109041;1250;96870;-72
2023/03/11 06:25:36;;;;;;;;;;;;;;;4.95;68.07;94669.85;109008;1249;96979;-73
2023/03/11 06:28:04;;;;;;;;;;;;;;;4.85;67.71;94718.44;109050;1250;103921;-72
2023/03/11 06:30:32;;;;;;;;;;;;;;;4.51;67.27;94713.64;109059;1249;101421;-75
2023/03/11 06:33:00;;;;;;;;;;;;;;;4.17;67.39;94706.41;109037;1250;100137;-73
2023/03/11 06:35:28;;;;;;;;;;;;;;;3.89;67.62;94709.97;109015;1250;96864;-77
2023/03/11 06:37:56;;;;;;;;;;;;;;;3.68;67.64;94722.12;109030;1249;96991;-78
2023/03/11 06:40:24;;;;;;;;;;;;;;;3.51;67.62;94718.87;109050;1249;104934;-75
2023/03/11 06:42:52;;;;;;;;;;;;;;;3.34;67.80;94727.73;109028;1250;100458;-74
2023/03/11 06:45:20;;;;;;;;;;;;;;;3.21;68.04;94729.95;109046;1251;99747;-76
2023/03/11 06:47:48;;;;;;;;;;;;;;;3.12;68.09;94730.77;108999;1250;96884;-76
2023/03/11 06:50:17;;;;;;;;;;;;;;;3.09;68.06;94735.74;108758;1256;97390;-75
2023/03/11 06:52:44;;;;;;;;;;;;;;;3.06;68.09;94738.27;108829;1250;105177;-75
2023/03/11 06:55:12;;;;;;;;;;;;;;;3.05;68.02;94749.55;108989;1251;101302;-75
2023/03/11 06:57:40;;;;;;;;;;;;;;;3.04;68.05;94759.10;109014;1250;100104;-75
2023/03/11 07:00:11;;;;;;;;;;;;;;;3.03;68.11;94761.27;109088;1249;96982;-74
2023/03/11 07:02:39;;;;;;;;;;;;;;;3.06;68.09;94767.64;109060;1249;96939;-73
2023/03/11 07:05:07;;;;;;;;;;;;;;;3.08;67.73;94774.41;109038;1251;104825;-75
2023/03/11 07:07:35;;;;;;;;;;;;;;;3.12;67.65;94778.34;109032;1251;101265;-76
2023/03/11 07:10:03;;;;;;;;;;;;;;;3.15;67.49;94781.84;108990;1251;100088;-74
2023/03/11 07:12:31;;;;;;;;;;;;;;;3.16;67.31;94781.25;108667;1251;96967;-76
2023/03/11 07:15:00;;;;;;;;;;;;;;;3.16;67.12;94787.35;109036;1250;96982;-74
2023/03/11 07:17:28;;;;;;;;;;;;;;;3.20;67.13;94785.17;109107;1250;105113;-76
2023/03/11 07:19:56;;;;;;;;;;;;;;;3.23;67.02;94791.66;108683;1259;101321;-73
2023/03/11 07:22:24;;;;;;;;;;;;;;;3.28;66.95;94800.97;109033;1250;98881;-74
2023/03/11 07:24:52;;;;;;;;;;;;;;;3.32;66.90;94799.52;109023;1252;96926;-76
2023/03/11 07:27:21;;;;;;;;;;;;;;;3.34;66.98;94798.66;109053;1249;97026;-74
2023/03/11 07:29:49;;;;;;;;;;;;;;;3.35;66.79;94795.45;109032;1250;104564;-74
2023/03/11 07:32:17;;;;;;;;;;;;;;;3.35;66.76;94803.13;109073;1250;100052;-75
2023/03/11 07:34:45;;;;;;;;;;;;;;;3.35;66.86;94803.91;109024;1249;100184;-74
2023/03/11 07:37:13;;;;;;;;;;;;;;;3.39;67.16;94799.89;108992;1251;96945;-74
2023/03/11 07:39:41;;;;;;;;;;;;;;;3.41;67.11;94804.48;109065;1251;97809;-75
2023/03/11 07:42:09;;;;;;;;;;;;;;;3.43;66.92;94802.20;109014;1253;105095;-74
2023/03/11 07:44:37;;;;;;;;;;;;;;;3.43;66.59;94808.20;109063;1249;101580;-73
2023/03/11 07:47:05;;;;;;;;;;;;;;;3.41;66.58;94813.35;109031;1250;100091;-72
2023/03/11 07:49:33;;;;;;;;;;;;;;;3.41;66.64;94818.35;109021;1250;96877;-72
2023/03/11 07:52:01;;;;;;;;;;;;;;;3.38;66.52;94817.38;109045;1251;96950;-72
2023/03/11 07:54:29;;;;;;;;;;;;;;;3.35;66.63;94821.20;109029;1251;105058;-75
2023/03/11 07:56:57;;;;;;;;;;;;;;;3.31;66.71;94826.48;109060;1250;101368;-74
2023/03/11 07:59:25;;;;;;;;;;;;;;;3.25;66.93;94824.76;108854;1250;212777;-74
2023/03/11 08:01:54;;;;;;;;;;;;;;;3.24;67.19;94830.70;108967;1251;96928;-72
2023/03/11 08:04:22;;;;;;;;;;;;;;;3.22;67.06;94837.23;109030;1251;97266;-72
2023/03/11 08:06:50;;;;;;;;;;;;;;;3.18;66.98;94840.82;109033;1251;104463;-72
2023/03/11 08:09:18;;;;;;;;;;;;;;;3.14;66.86;94844.58;108667;1251;99996;-73
2023/03/11 08:11:46;;;;;;;;;;;;;;;3.10;67.18;94845.54;108961;1251;100111;-72
2023/03/11 08:14:14;;;;;;;;;;;;;;;3.11;67.28;94845.45;109029;1249;96861;-71
2023/03/11 08:16:42;;;;;;;;;;;;;;;3.09;67.12;94844.60;108763;1251;96994;-74
2023/03/11 08:19:13;;;;;;;;;;;;;;;3.07;67.04;94850.86;109028;1251;103695;-74
2023/03/11 08:21:41;;;;;;;;;;;;;;;3.04;67.31;94854.14;109009;1251;101210;-71
2023/03/11 08:24:10;;;;;;;;;;;;;;;3.03;67.38;94855.38;109041;1250;100165;-73
2023/03/11 08:26:39;;;;;;;;;;;;;;;3.04;67.32;94867.84;109002;1252;96926;-72
2023/03/11 08:29:07;;;;;;;;;;;;;;;3.03;67.39;94867.02;109020;1251;96905;-72
2023/03/11 08:31:35;;;;;;;;;;;;;;;3.06;67.57;94865.77;109041;1250;104751;-72
2023/03/11 08:34:05;;;;;;;;;;;;;;;3.09;67.72;94874.50;109064;1250;101826;-72
2023/03/11 08:36:34;;;;;;;;;;;;;;;3.06;67.72;94874.58;109001;1249;98972;-73
2023/03/11 08:39:02;;;;;;;;;;;;;;;3.06;67.40;94879.41;109036;1250;96834;-71
2023/03/11 08:41:30;;;;;;;;;;;;;;;3.04;67.50;94885.02;109023;1251;97382;-72
2023/03/11 08:43:58;;;;;;;;;;;;;;;3.01;67.56;94884.54;109002;1251;105060;-72
2023/03/11 08:46:30;;;;;;;;;;;;;;;3.03;67.76;94891.06;109008;1250;101583;-71
2023/03/11 08:48:59;;;;;;;;;;;;;;;3.07;67.94;94897.64;108994;1251;100040;-71
2023/03/11 08:51:27;;;;;;;;;;;;;;;3.08;67.75;94899.89;108643;1251;96949;-71
2023/03/11 08:53:55;;;;;;;;;;;;;;;3.10;68.08;94901.67;109015;1250;96951;-72
2023/03/11 08:56:23;;;;;;;;;;;;;;;3.21;68.19;94905.42;109063;1253;104907;-73
2023/03/11 08:58:51;;;;;;;;;;;;;;;3.32;68.04;94912.36;109012;1250;101275;-72
2023/03/11 09:01:20;;;;;;;;;;;;;;;3.38;67.91;94907.60;108697;1250;98960;-71
2023/03/11 09:03:48;;;;;;;;;;;;;;;3.41;67.79;94914.20;109008;1251;96849;-70
2023/03/11 09:06:16;;;;;;;;;;;;;;;3.39;67.51;94919.69;109053;1250;96930;-71
2023/03/11 09:08:45;;;;;;;;;;;;;;;3.34;67.45;94921.00;109025;1250;104858;-72
2023/03/11 09:11:14;;;;;;;;;;;;;;;3.33;67.48;94924.65;109014;1251;101238;-71
2023/03/11 09:13:43;;;;;;;;;;;;;;;3.35;67.39;94931.52;109044;1251;99830;-74
2023/03/11 09:16:13;;;;;;;;;;;;;;;3.36;67.35;94941.76;108959;1250;96854;-71
2023/03/11 09:18:41;;;;;;;;;;;;;;;3.37;67.27;94941.25;109024;1251;96883;-72
2023/03/11 09:21:09;;;;;;;;;;;;;;;3.43;67.19;94941.81;109089;1250;104942;-73
2023/03/11 09:23:37;;;;;;;;;;;;;;;3.48;67.19;94946.12;109036;1251;101265;-71
2023/03/11 09:26:05;;;;;;;;;;;;;;;3.51;67.11;94939.94;109007;1250;100063;-74
2023/03/11 09:28:33;;;;;;;;;;;;;;;3.49;66.79;94948.34;109049;1253;96908;-73
2023/03/11 09:31:01;;;;;;;;;;;;;;;3.44;66.80;94953.21;109018;1251;96969;-71
2023/03/11 09:33:29;;;;;;;;;;;;;;;3.39;66.77;94951.42;109033;1251;104944;-74
2023/03/11 09:35:58;;;;;;;;;;;;;;;3.37;66.73;94953.68;108979;1250;101537;-72
2023/03/11 09:38:26;;;;;;;;;;;;;;;3.35;66.63;94953.48;108995;1250;99509;-71
2023/03/11 09:41:13;;;;;;;;;;;;;;;3.37;66.56;94955.96;109031;1251;97197;-72
2023/03/11 09:43:52;;;;;;;;;;;;;;;3.40;66.54;94962.05;109022;1250;97004;-73
2023/03/11 09:46:31;;;;;;;;;;;;;;;3.40;66.44;94963.77;109008;1250;104774;-71
2023/03/11 09:48:59;;;;;;;;;;;;;;;3.41;66.34;94969.98;109016;1250;101313;-72
2023/03/11 09:51:30;;;;;;;;;;;;;;;3.42;66.26;94966.33;108986;1251;99946;-72
2023/03/11 09:54:11;;;;;;;;;;;;;;;3.45;66.40;94966.63;108934;1251;96908;-71
2023/03/11 09:56:40;;;;;;;;;;;;;;;3.48;66.28;94966.95;109078;1250;97065;-73
2023/03/11 09:59:13;;;;;;;;;;;;;;;3.60;66.46;94967.99;109069;1250;104799;-72
2023/03/11 10:01:43;;;;;;;;;;;;;;;3.77;66.40;94979.04;109009;1250;101644;-72
2023/03/11 10:04:10;;;;;;;;;;;;;;;3.93;66.16;94980.25;108888;1251;99549;-72
2023/03/11 10:06:40;;;;;;;;;;;;;;;4.06;65.91;94983.73;109006;1251;96914;-73
2023/03/11 10:09:23;;;;;;;;;;;;;;;4.10;65.65;94989.54;109073;1250;97060;-72
2023/03/11 10:12:10;;;;;;;;;;;;;;;4.10;65.40;95001.50;108965;1251;104929;-72
2023/03/11 10:14:47;;;;;;;;;;;;;;;4.07;65.29;95005.49;108919;1251;101178;-72
2023/03/11 10:17:22;;;;;;;;;;;;;;;4.03;65.34;95005.59;108969;1250;100177;-70
2023/03/11 10:19:50;;;;;;;;;;;;;;;3.97;65.30;95018.95;108956;1250;96886;-71
2023/03/11 10:22:27;;;;;;;;;;;;;;;3.92;65.25;95018.52;108980;1250;96945;-73
2023/03/11 10:25:03;;;;;;;;;;;;;;;3.91;65.66;95022.48;109003;1251;105139;-72
2023/03/11 10:27:38;;;;;;;;;;;;;;;3.92;65.73;95027.31;108663;1251;100941;-72
2023/03/11 10:30:06;;;;;;;;;;;;;;;3.92;65.77;95033.14;109016;1251;100049;-72
2023/03/11 10:32:38;;;;;;;;;;;;;;;3.90;65.67;95034.89;109008;1251;97573;-72
2023/03/11 10:35:15;;;;;;;;;;;;;;;3.81;65.78;95043.58;108579;1251;97098;-72
2023/03/11 10:37:46;;;;;;;;;;;;;;;3.73;66.01;95055.26;108971;1251;105106;-71
2023/03/11 10:40:17;;;;;;;;;;;;;;;3.66;66.04;95068.92;108648;1251;100490;-71
2023/03/11 10:42:49;;;;;;;;;;;;;;;3.55;65.66;95065.20;108934;1249;100032;-72
2023/03/11 10:45:19;;;;;;;;;;;;;;;3.35;65.40;95068.91;108973;1249;97221;-72
2023/03/11 10:47:47;;;;;;;;;;;;;;;3.21;65.73;95068.89;108996;1250;97016;-73
2023/03/11 10:50:19;;;;;;;;;;;;;;;3.13;65.81;95073.18;108960;1251;105098;-73
2023/03/11 10:53:05;;;;;;;;;;;;;;;3.11;66.02;95077.67;108566;1251;101228;-71
2023/03/11 10:55:33;;;;;;;;;;;;;;;3.08;66.00;95082.33;108637;1251;98848;-71
2023/03/11 10:58:12;;;;;;;;;;;;;;;2.96;66.13;95085.20;108798;1251;96916;-72
2023/03/11 11:00:40;;;;;;;;;;;;;;;2.95;66.36;95090.66;108854;1251;97046;-71
2023/03/11 11:03:21;;;;;;;;;;;;;;;3.00;66.50;95093.83;108894;1251;103515;-72
2023/03/11 11:06:00;;;;;;;;;;;;;;;2.99;66.55;95092.55;108578;1256;101275;-72
2023/03/11 11:08:29;;;;;;;;;;;;;;;3.00;66.41;95098.01;108933;1251;100029;-71
2023/03/11 11:10:58;;;;;;;;;;;;;;;2.95;66.52;95102.38;108888;1251;96907;-71
2023/03/11 11:13:29;;;;;;;;;;;;;;;2.89;66.64;95106.58;108842;1251;96986;-71
2023/03/11 11:16:15;;;;;;;;;;;;;;;2.84;66.75;95111.92;108911;1251;104740;-72
2023/03/11 11:18:58;;;;;;;;;;;;;;;2.76;66.73;95117.52;108867;1251;101000;-74
2023/03/11 11:21:34;;;;;;;;;;;;;;;2.69;66.83;95126.80;108634;1251;98715;-71
2023/03/11 11:24:02;;;;;;;;;;;;;;;2.51;66.96;95133.30;108868;1251;96888;-71
2023/03/11 11:26:30;;;;;;;;;;;;;;;2.39;67.25;95144.98;108576;1251;97874;-71
2023/03/11 11:29:15;;;;;;;;;;;;;;;2.33;67.42;95147.80;108931;1250;103864;-72
2023/03/11 11:31:47;;;;;;;;;;;;;;;2.29;67.54;95150.98;108871;1251;101665;-71
2023/03/11 11:34:29;;;;;;;;;;;;;;;2.25;67.59;95161.21;108868;1251;100026;-74
2023/03/11 11:36:58;;;;;;;;;;;;;;;2.16;67.94;95163.69;108874;1251;97001;-74
2023/03/11 11:39:28;;;;;;;;;;;;;;;2.14;68.35;95170.21;108951;1251;97061;-74
2023/03/11 11:41:57;;;;;;;;;;;;;;;2.09;68.04;95171.41;108922;1251;105082;-76
2023/03/11 11:44:32;;;;;;;;;;;;;;;2.02;68.19;95185.54;108976;1251;101344;-74
2023/03/11 11:47:20;;;;;;;;;;;;;;;1.96;68.24;95182.58;108929;1250;100118;-75
2023/03/11 11:49:50;;;;;;;;;;;;;;;1.93;68.32;95185.54;108990;1250;96886;-75
2023/03/11 11:52:21;;;;;;;;;;;;;;;1.92;68.52;95194.02;108711;1251;96986;-75
2023/03/11 11:54:54;;;;;;;;;;;;;;;1.90;68.64;95197.96;109001;1250;105109;-74
2023/03/11 11:57:23;;;;;;;;;;;;;;;1.84;68.62;95195.56;109038;1249;101355;-74
2023/03/11 11:59:51;;;;;;;;;;;;;;;1.79;68.74;95203.03;109047;1250;99653;-74
2023/03/11 12:02:35;;;;;;;;;;;;;;;1.79;68.66;95214.45;108985;1250;96862;-74
2023/03/11 12:05:14;;;;;;;;;;;;;;;1.75;68.67;95212.77;109004;1251;96970;-74
2023/03/11 12:07:52;;;;;;;;;;;;;;;1.73;68.70;95217.37;108955;1251;104626;-74
2023/03/11 12:10:27;;;;;;;;;;;;;;;1.75;68.75;95227.19;108705;1249;100399;-74
2023/03/11 12:13:10;;;;;;;;;;;;;;;1.76;68.51;95230.26;109016;1251;100172;-76
2023/03/11 12:15:56;;;;;;;;;;;;;;;1.73;68.45;95233.90;109018;1251;96892;-76
2023/03/11 12:18:34;;;;;;;;;;;;;;;1.69;68.34;95238.48;109035;1249;97303;-76
2023/03/11 12:21:09;;;;;;;;;;;;;;;1.68;68.61;95240.87;109054;1250;104963;-73
2023/03/11 12:23:37;;;;;;;;;;;;;;;1.72;68.77;95250.11;108679;1251;101994;-75
2023/03/11 12:26:07;;;;;;;;;;;;;;;1.74;68.68;95252.89;109004;1250;100141;-74
2023/03/11 12:28:38;;;;;;;;;;;;;;;1.74;68.82;95262.09;109014;1249;96917;-74
2023/03/11 12:31:10;;;;;;;;;;;;;;;1.73;68.54;95272.04;109068;1250;97772;-76
2023/03/11 12:33:41;;;;;;;;;;;;;;;1.65;68.77;95281.02;109038;1250;104182;-75
2023/03/11 12:36:22;;;;;;;;;;;;;;;1.55;68.75;95290.04;109090;1250;101292;-77
2023/03/11 12:38:51;;;;;;;;;;;;;;;1.50;68.78;95295.02;109007;1250;100049;-76
2023/03/11 12:41:25;;;;;;;;;;;;;;;1.46;68.91;95307.27;108985;1250;96841;-75
2023/03/11 12:43:53;;;;;;;;;;;;;;;1.44;69.02;95319.90;109036;1249;96944;-74
2023/03/11 12:46:21;;;;;;;;;;;;;;;1.41;69.02;95324.30;108673;1250;106024;-72
2023/03/11 12:48:50;;;;;;;;;;;;;;;1.36;69.20;95334.88;109044;1249;101164;-73
2023/03/11 12:51:27;;;;;;;;;;;;;;;1.32;69.45;95335.95;108997;1249;99876;-74
2023/03/11 12:53:55;;;;;;;;;;;;;;;1.32;69.83;95342.91;108950;1249;97097;-73